Main page
METAR-TAF:

METAR-TAF

Airports :

Simón Bolívar International Airport

Caracas, Venezuela

latitude: 10-36N, longitude: 066-59W, elevation: 43 m

Current weather observation

The report was made 55 minutes ago, at 00:00 UTC
Wind 3 kt from the East
Temperature 26°C
Humidity 84%
Pressure 1015 hPa
Visibility 10 km or more
Broken clouds at a height of 1600 ft

METAR: SVMI 160000Z 09003KT 9999 BKN016 26/23 Q1015

Time: 20:55 (00:55 UTC)

Forecast

The report was made 2 hours and 55 minutes ago, at 22:00 UTC
Forecast valid from 16 at 00 UTC to 17 at 00 UTC
Wind 13 kt from the East
Visibility 10 km or more
Scattered clouds at a height of 1600 ft
Becoming
from 16 at 01 UTC to 16 at 05 UTC
Wind 9 kt from the East
Few clouds at a height of 1600 ft

TAF: SVMI 152200Z 1600/1700 09013KT 9999 SCT016 TX31/19Z TN23/10Z BECMG 1601/1605 09009KT FEW016

Weather observations and forecasts of more than 4000 airports (METAR and TAF reports).

The available stations are represented by yellow and red dots on the map.

Hover mouse over dot to see the name of the station.

Then click to see weather observations and forecasts.

To change the map : click on the green buttons with a black cross to zoom in, on the green button with a dash to zoom out, or on the green arrows for adjacent maps.


METAR-TAF: